sensor_id;sensor_type;location;lat;lon;timestamp;temperature;humidity
78708;SHT31;68037;51.978;5.650;2023-04-03T00:01:59;8.9;49.3
78708;SHT31;68037;51.978;5.650;2023-04-03T00:04:28;8.9;49.3
78708;SHT31;68037;51.978;5.650;2023-04-03T00:06:58;8.8;49.3
78708;SHT31;68037;51.978;5.650;2023-04-03T00:09:27;8.8;49.7
78708;SHT31;68037;51.978;5.650;2023-04-03T00:11:57;8.8;49.6
78708;SHT31;68037;51.978;5.650;2023-04-03T00:14:27;8.7;49.5
78708;SHT31;68037;51.978;5.650;2023-04-03T00:16:56;8.7;49.7
78708;SHT31;68037;51.978;5.650;2023-04-03T00:19:26;8.7;49.6
78708;SHT31;68037;51.978;5.650;2023-04-03T00:21:55;8.7;49.4
78708;SHT31;68037;51.978;5.650;2023-04-03T00:24:25;8.6;49.2
78708;SHT31;68037;51.978;5.650;2023-04-03T00:26:54;8.6;49.5
78708;SHT31;68037;51.978;5.650;2023-04-03T00:29:24;8.6;49.7
78708;SHT31;68037;51.978;5.650;2023-04-03T00:31:53;8.6;49.4
78708;SHT31;68037;51.978;5.650;2023-04-03T00:34:23;8.6;49.3
78708;SHT31;68037;51.978;5.650;2023-04-03T00:36:52;8.7;49.6
78708;SHT31;68037;51.978;5.650;2023-04-03T00:39:22;8.7;49.3
78708;SHT31;68037;51.978;5.650;2023-04-03T00:41:51;8.8;49.3
78708;SHT31;68037;51.978;5.650;2023-04-03T00:45:24;8.8;48.7
78708;SHT31;68037;51.978;5.650;2023-04-03T00:47:56;8.9;48.4
78708;SHT31;68037;51.978;5.650;2023-04-03T00:50:29;8.8;48.5
78708;SHT31;68037;51.978;5.650;2023-04-03T00:52:59;8.8;48.4
78708;SHT31;68037;51.978;5.650;2023-04-03T00:55:29;8.7;48.4
78708;SHT31;68037;51.978;5.650;2023-04-03T00:58:00;8.7;48.6
78708;SHT31;68037;51.978;5.650;2023-04-03T01:00:30;8.6;49.2
78708;SHT31;68037;51.978;5.650;2023-04-03T01:03:00;8.6;49.0
78708;SHT31;68037;51.978;5.650;2023-04-03T01:05:30;8.5;49.4
78708;SHT31;68037;51.978;5.650;2023-04-03T01:08:01;8.4;49.7
78708;SHT31;68037;51.978;5.650;2023-04-03T01:10:33;8.4;49.7
78708;SHT31;68037;51.978;5.650;2023-04-03T01:13:21;8.4;50.0
78708;SHT31;68037;51.978;5.650;2023-04-03T01:15:52;8.3;50.2
78708;SHT31;68037;51.978;5.650;2023-04-03T01:18:24;8.3;50.7
78708;SHT31;68037;51.978;5.650;2023-04-03T01:22:26;8.2;50.6
78708;SHT31;68037;51.978;5.650;2023-04-03T01:24:59;8.2;50.7
78708;SHT31;68037;51.978;5.650;2023-04-03T01:27:30;8.1;50.6
78708;SHT31;68037;51.978;5.650;2023-04-03T01:30:00;8.1;50.7
78708;SHT31;68037;51.978;5.650;2023-04-03T01:32:30;8.1;51.0
78708;SHT31;68037;51.978;5.650;2023-04-03T01:34:59;8.0;51.2
78708;SHT31;68037;51.978;5.650;2023-04-03T01:37:29;8.0;51.1
78708;SHT31;68037;51.978;5.650;2023-04-03T01:40:00;7.9;51.5
78708;SHT31;68037;51.978;5.650;2023-04-03T01:42:32;7.9;51.3
78708;SHT31;68037;51.978;5.650;2023-04-03T01:45:02;7.9;51.7
78708;SHT31;68037;51.978;5.650;2023-04-03T01:47:32;7.9;51.4
78708;SHT31;68037;51.978;5.650;2023-04-03T01:50:02;7.8;51.7
78708;SHT31;68037;51.978;5.650;2023-04-03T01:52:31;7.8;52.1
78708;SHT31;68037;51.978;5.650;2023-04-03T01:55:01;7.8;52.3
78708;SHT31;68037;51.978;5.650;2023-04-03T01:57:30;7.8;52.5
78708;SHT31;68037;51.978;5.650;2023-04-03T02:00:00;7.7;52.4
78708;SHT31;68037;51.978;5.650;2023-04-03T02:02:30;7.7;52.5
78708;SHT31;68037;51.978;5.650;2023-04-03T02:05:00;7.7;53.0
78708;SHT31;68037;51.978;5.650;2023-04-03T02:07:29;7.7;52.8
78708;SHT31;68037;51.978;5.650;2023-04-03T02:09:59;7.7;52.8
78708;SHT31;68037;51.978;5.650;2023-04-03T02:12:28;7.7;53.0
78708;SHT31;68037;51.978;5.650;2023-04-03T02:14:58;7.7;53.3
78708;SHT31;68037;51.978;5.650;2023-04-03T02:17:28;7.8;53.3
78708;SHT31;68037;51.978;5.650;2023-04-03T02:19:57;7.8;52.9
78708;SHT31;68037;51.978;5.650;2023-04-03T02:22:27;7.8;53.0
78708;SHT31;68037;51.978;5.650;2023-04-03T02:24:57;7.7;52.8
78708;SHT31;68037;51.978;5.650;2023-04-03T02:27:26;7.7;53.1
78708;SHT31;68037;51.978;5.650;2023-04-03T02:29:56;7.7;53.3
78708;SHT31;68037;51.978;5.650;2023-04-03T02:32:25;7.6;53.5
78708;SHT31;68037;51.978;5.650;2023-04-03T02:34:55;7.6;53.6
78708;SHT31;68037;51.978;5.650;2023-04-03T02:37:24;7.6;53.6
78708;SHT31;68037;51.978;5.650;2023-04-03T02:39:54;7.5;54.1
78708;SHT31;68037;51.978;5.650;2023-04-03T02:42:23;7.5;54.0
78708;SHT31;68037;51.978;5.650;2023-04-03T02:44:53;7.5;54.2
78708;SHT31;68037;51.978;5.650;2023-04-03T02:47:23;7.4;54.4
78708;SHT31;68037;51.978;5.650;2023-04-03T02:49:52;7.4;54.5
78708;SHT31;68037;51.978;5.650;2023-04-03T02:52:22;7.4;54.5
78708;SHT31;68037;51.978;5.650;2023-04-03T02:54:52;7.4;54.7
78708;SHT31;68037;51.978;5.650;2023-04-03T02:57:22;7.5;54.5
78708;SHT31;68037;51.978;5.650;2023-04-03T02:59:51;7.6;54.5
78708;SHT31;68037;51.978;5.650;2023-04-03T03:02:22;7.6;54.5
78708;SHT31;68037;51.978;5.650;2023-04-03T03:04:52;7.7;53.9
78708;SHT31;68037;51.978;5.650;2023-04-03T03:07:21;7.7;53.6
78708;SHT31;68037;51.978;5.650;2023-04-03T03:09:52;7.7;53.7
78708;SHT31;68037;51.978;5.650;2023-04-03T03:12:21;7.7;53.8
78708;SHT31;68037;51.978;5.650;2023-04-03T03:14:54;7.6;53.7
78708;SHT31;68037;51.978;5.650;2023-04-03T03:17:25;7.6;53.8
78708;SHT31;68037;51.978;5.650;2023-04-03T03:19:55;7.6;53.9
78708;SHT31;68037;51.978;5.650;2023-04-03T03:22:26;7.5;54.0
78708;SHT31;68037;51.978;5.650;2023-04-03T03:24:55;7.5;54.2
78708;SHT31;68037;51.978;5.650;2023-04-03T03:27:25;7.5;54.2
78708;SHT31;68037;51.978;5.650;2023-04-03T03:29:56;7.4;54.7
78708;SHT31;68037;51.978;5.650;2023-04-03T03:32:25;7.4;54.7
78708;SHT31;68037;51.978;5.650;2023-04-03T03:34:55;7.3;54.6
78708;SHT31;68037;51.978;5.650;2023-04-03T03:37:24;7.3;54.8
78708;SHT31;68037;51.978;5.650;2023-04-03T03:39:55;7.3;54.9
78708;SHT31;68037;51.978;5.650;2023-04-03T03:42:24;7.2;55.3
78708;SHT31;68037;51.978;5.650;2023-04-03T03:44:54;7.2;55.5
78708;SHT31;68037;51.978;5.650;2023-04-03T03:47:23;7.1;55.7
78708;SHT31;68037;51.978;5.650;2023-04-03T03:49:52;7.1;55.6
78708;SHT31;68037;51.978;5.650;2023-04-03T03:52:22;7.1;55.6
78708;SHT31;68037;51.978;5.650;2023-04-03T03:54:52;7.1;55.8
78708;SHT31;68037;51.978;5.650;2023-04-03T03:57:21;7.0;55.8
78708;SHT31;68037;51.978;5.650;2023-04-03T03:59:52;7.0;56.3
78708;SHT31;68037;51.978;5.650;2023-04-03T04:02:21;7.0;56.1
78708;SHT31;68037;51.978;5.650;2023-04-03T04:04:52;7.1;55.8
78708;SHT31;68037;51.978;5.650;2023-04-03T04:07:22;7.0;55.7
78708;SHT31;68037;51.978;5.650;2023-04-03T04:09:52;7.0;55.8
78708;SHT31;68037;51.978;5.650;2023-04-03T04:12:21;7.0;56.0
78708;SHT31;68037;51.978;5.650;2023-04-03T04:14:52;6.9;56.0
78708;SHT31;68037;51.978;5.650;2023-04-03T04:17:22;6.9;56.5
78708;SHT31;68037;51.978;5.650;2023-04-03T04:19:51;6.9;56.0
78708;SHT31;68037;51.978;5.650;2023-04-03T04:22:21;6.8;56.6
78708;SHT31;68037;51.978;5.650;2023-04-03T04:24:50;6.8;56.4
78708;SHT31;68037;51.978;5.650;2023-04-03T04:27:20;6.8;56.7
78708;SHT31;68037;51.978;5.650;2023-04-03T04:29:49;6.8;57.0
78708;SHT31;68037;51.978;5.650;2023-04-03T04:32:20;6.7;56.6
78708;SHT31;68037;51.978;5.650;2023-04-03T04:34:50;6.7;56.5
78708;SHT31;68037;51.978;5.650;2023-04-03T04:37:19;6.7;56.6
78708;SHT31;68037;51.978;5.650;2023-04-03T04:39:49;6.7;56.8
78708;SHT31;68037;51.978;5.650;2023-04-03T04:42:18;6.7;57.0
78708;SHT31;68037;51.978;5.650;2023-04-03T04:44:48;6.6;57.1
78708;SHT31;68037;51.978;5.650;2023-04-03T04:47:17;6.6;57.1
78708;SHT31;68037;51.978;5.650;2023-04-03T04:49:47;6.6;57.0
78708;SHT31;68037;51.978;5.650;2023-04-03T04:52:17;6.6;57.0
78708;SHT31;68037;51.978;5.650;2023-04-03T04:54:47;6.5;57.2
78708;SHT31;68037;51.978;5.650;2023-04-03T04:57:16;6.5;57.5
78708;SHT31;68037;51.978;5.650;2023-04-03T04:59:47;6.4;57.3
78708;SHT31;68037;51.978;5.650;2023-04-03T05:02:17;6.4;57.7
78708;SHT31;68037;51.978;5.650;2023-04-03T05:04:47;6.4;57.8
78708;SHT31;68037;51.978;5.650;2023-04-03T05:07:17;6.3;57.8
78708;SHT31;68037;51.978;5.650;2023-04-03T05:09:47;6.3;58.2
78708;SHT31;68037;51.978;5.650;2023-04-03T05:12:16;6.2;58.0
78708;SHT31;68037;51.978;5.650;2023-04-03T05:14:46;6.2;58.3
78708;SHT31;68037;51.978;5.650;2023-04-03T05:17:15;6.2;58.6
78708;SHT31;68037;51.978;5.650;2023-04-03T05:19:45;6.3;58.2
78708;SHT31;68037;51.978;5.650;2023-04-03T05:22:14;6.3;58.3
78708;SHT31;68037;51.978;5.650;2023-04-03T05:24:44;6.4;57.9
78708;SHT31;68037;51.978;5.650;2023-04-03T05:27:13;6.4;57.2
78708;SHT31;68037;51.978;5.650;2023-04-03T05:29:45;6.5;57.2
78708;SHT31;68037;51.978;5.650;2023-04-03T05:32:15;6.5;57.2
78708;SHT31;68037;51.978;5.650;2023-04-03T05:34:44;6.5;57.0
78708;SHT31;68037;51.978;5.650;2023-04-03T05:37:15;6.6;56.7
78708;SHT31;68037;51.978;5.650;2023-04-03T05:39:45;6.5;56.5
78708;SHT31;68037;51.978;5.650;2023-04-03T05:42:14;6.5;56.6
78708;SHT31;68037;51.978;5.650;2023-04-03T05:44:46;6.5;57.0
78708;SHT31;68037;51.978;5.650;2023-04-03T05:47:17;6.5;56.8
78708;SHT31;68037;51.978;5.650;2023-04-03T05:49:47;6.4;56.9
78708;SHT31;68037;51.978;5.650;2023-04-03T05:52:21;6.4;56.8
78708;SHT31;68037;51.978;5.650;2023-04-03T05:54:52;6.4;57.0
78708;SHT31;68037;51.978;5.650;2023-04-03T05:57:23;6.3;57.1
78708;SHT31;68037;51.978;5.650;2023-04-03T05:59:52;6.3;57.4
78708;SHT31;68037;51.978;5.650;2023-04-03T06:02:23;6.3;57.6
78708;SHT31;68037;51.978;5.650;2023-04-03T06:04:54;6.3;57.7
78708;SHT31;68037;51.978;5.650;2023-04-03T06:07:24;6.2;57.4
78708;SHT31;68037;51.978;5.650;2023-04-03T06:09:57;6.2;57.4
78708;SHT31;68037;51.978;5.650;2023-04-03T06:12:27;6.2;57.5
78708;SHT31;68037;51.978;5.650;2023-04-03T06:14:58;6.2;57.6
78708;SHT31;68037;51.978;5.650;2023-04-03T06:17:31;6.1;57.9
78708;SHT31;68037;51.978;5.650;2023-04-03T06:20:03;6.1;57.8
78708;SHT31;68037;51.978;5.650;2023-04-03T06:22:35;6.1;58.0
78708;SHT31;68037;51.978;5.650;2023-04-03T06:25:06;6.1;58.1
78708;SHT31;68037;51.978;5.650;2023-04-03T06:27:36;6.1;58.1
78708;SHT31;68037;51.978;5.650;2023-04-03T06:30:07;6.1;58.0
78708;SHT31;68037;51.978;5.650;2023-04-03T06:32:38;6.1;57.8
78708;SHT31;68037;51.978;5.650;2023-04-03T06:35:09;6.1;58.1
78708;SHT31;68037;51.978;5.650;2023-04-03T06:37:40;6.1;58.3
78708;SHT31;68037;51.978;5.650;2023-04-03T06:40:18;6.2;57.9
78708;SHT31;68037;51.978;5.650;2023-04-03T06:42:49;6.2;57.3
78708;SHT31;68037;51.978;5.650;2023-04-03T06:45:18;6.2;57.0
78708;SHT31;68037;51.978;5.650;2023-04-03T06:47:48;6.2;57.3
78708;SHT31;68037;51.978;5.650;2023-04-03T06:50:18;6.2;58.0
78708;SHT31;68037;51.978;5.650;2023-04-03T06:52:50;6.2;58.1
78708;SHT31;68037;51.978;5.650;2023-04-03T06:55:19;6.2;57.7
78708;SHT31;68037;51.978;5.650;2023-04-03T06:57:49;6.2;57.5
78708;SHT31;68037;51.978;5.650;2023-04-03T07:00:19;6.3;57.4
78708;SHT31;68037;51.978;5.650;2023-04-03T07:02:49;6.3;57.3
78708;SHT31;68037;51.978;5.650;2023-04-03T07:05:19;6.3;56.7
78708;SHT31;68037;51.978;5.650;2023-04-03T07:07:49;6.4;56.6
78708;SHT31;68037;51.978;5.650;2023-04-03T07:10:19;6.4;56.5
78708;SHT31;68037;51.978;5.650;2023-04-03T07:12:50;6.4;56.7
78708;SHT31;68037;51.978;5.650;2023-04-03T07:15:19;6.5;56.7
78708;SHT31;68037;51.978;5.650;2023-04-03T07:17:49;6.5;56.3
78708;SHT31;68037;51.978;5.650;2023-04-03T07:20:19;6.6;56.6
78708;SHT31;68037;51.978;5.650;2023-04-03T07:22:48;6.6;55.8
78708;SHT31;68037;51.978;5.650;2023-04-03T07:25:18;6.7;55.6
78708;SHT31;68037;51.978;5.650;2023-04-03T07:27:47;6.7;55.2
78708;SHT31;68037;51.978;5.650;2023-04-03T07:30:22;6.9;55.1
78708;SHT31;68037;51.978;5.650;2023-04-03T07:32:52;7.0;54.1
78708;SHT31;68037;51.978;5.650;2023-04-03T07:35:21;7.1;54.1
78708;SHT31;68037;51.978;5.650;2023-04-03T07:37:51;7.3;52.8
78708;SHT31;68037;51.978;5.650;2023-04-03T07:40:21;7.4;53.7
78708;SHT31;68037;51.978;5.650;2023-04-03T07:42:52;7.5;52.6
78708;SHT31;68037;51.978;5.650;2023-04-03T07:45:22;7.6;52.5
78708;SHT31;68037;51.978;5.650;2023-04-03T07:47:52;7.6;51.7
78708;SHT31;68037;51.978;5.650;2023-04-03T07:50:22;7.7;51.3
78708;SHT31;68037;51.978;5.650;2023-04-03T07:52:53;7.7;50.9
78708;SHT31;68037;51.978;5.650;2023-04-03T07:55:24;7.7;50.4
78708;SHT31;68037;51.978;5.650;2023-04-03T07:57:54;7.8;50.0
78708;SHT31;68037;51.978;5.650;2023-04-03T08:00:25;7.8;50.2
78708;SHT31;68037;51.978;5.650;2023-04-03T08:02:54;7.8;50.3
78708;SHT31;68037;51.978;5.650;2023-04-03T08:05:24;7.9;50.0
78708;SHT31;68037;51.978;5.650;2023-04-03T08:07:53;7.9;48.2
78708;SHT31;68037;51.978;5.650;2023-04-03T08:10:23;8.0;47.9
78708;SHT31;68037;51.978;5.650;2023-04-03T08:12:53;8.0;47.8
78708;SHT31;68037;51.978;5.650;2023-04-03T08:15:22;8.1;47.2
78708;SHT31;68037;51.978;5.650;2023-04-03T08:17:53;8.1;44.8
78708;SHT31;68037;51.978;5.650;2023-04-03T08:20:23;8.1;45.6
78708;SHT31;68037;51.978;5.650;2023-04-03T08:22:53;8.2;44.8
78708;SHT31;68037;51.978;5.650;2023-04-03T08:25:23;8.2;43.7
78708;SHT31;68037;51.978;5.650;2023-04-03T08:27:53;8.3;44.8
78708;SHT31;68037;51.978;5.650;2023-04-03T08:30:23;8.3;45.4
78708;SHT31;68037;51.978;5.650;2023-04-03T08:32:53;8.4;44.1
78708;SHT31;68037;51.978;5.650;2023-04-03T08:35:22;8.4;43.1
78708;SHT31;68037;51.978;5.650;2023-04-03T08:37:55;8.5;42.5
78708;SHT31;68037;51.978;5.650;2023-04-03T08:40:24;8.6;39.4
78708;SHT31;68037;51.978;5.650;2023-04-03T08:43:08;8.6;38.9
78708;SHT31;68037;51.978;5.650;2023-04-03T08:45:44;8.7;38.5
78708;SHT31;68037;51.978;5.650;2023-04-03T08:48:20;8.8;37.4
78708;SHT31;68037;51.978;5.650;2023-04-03T08:50:53;8.8;37.2
78708;SHT31;68037;51.978;5.650;2023-04-03T08:53:27;8.9;35.7
78708;SHT31;68037;51.978;5.650;2023-04-03T08:56:03;9.0;36.8
78708;SHT31;68037;51.978;5.650;2023-04-03T08:58:44;9.1;35.7
78708;SHT31;68037;51.978;5.650;2023-04-03T09:01:20;9.1;33.4
78708;SHT31;68037;51.978;5.650;2023-04-03T09:03:50;9.2;32.0
78708;SHT31;68037;51.978;5.650;2023-04-03T09:06:26;9.2;31.5
78708;SHT31;68037;51.978;5.650;2023-04-03T09:09:13;9.4;33.3
78708;SHT31;68037;51.978;5.650;2023-04-03T09:11:54;9.5;30.1
78708;SHT31;68037;51.978;5.650;2023-04-03T09:14:33;9.6;29.7
78708;SHT31;68037;51.978;5.650;2023-04-03T09:17:14;9.7;30.3
78708;SHT31;68037;51.978;5.650;2023-04-03T09:19:56;9.7;30.4
78708;SHT31;68037;51.978;5.650;2023-04-03T09:22:32;9.8;29.2
78708;SHT31;68037;51.978;5.650;2023-04-03T09:25:10;9.8;27.6
78708;SHT31;68037;51.978;5.650;2023-04-03T09:27:41;9.9;27.0
78708;SHT31;68037;51.978;5.650;2023-04-03T09:30:15;9.9;27.1
78708;SHT31;68037;51.978;5.650;2023-04-03T09:32:47;10.0;25.5
78708;SHT31;68037;51.978;5.650;2023-04-03T09:35:20;10.0;25.9
78708;SHT31;68037;51.978;5.650;2023-04-03T09:37:52;10.0;25.5
78708;SHT31;68037;51.978;5.650;2023-04-03T09:40:33;10.1;25.9
78708;SHT31;68037;51.978;5.650;2023-04-03T09:43:28;10.1;25.8
78708;SHT31;68037;51.978;5.650;2023-04-03T09:46:23;10.1;26.5
78708;SHT31;68037;51.978;5.650;2023-04-03T09:48:56;10.2;26.8
78708;SHT31;68037;51.978;5.650;2023-04-03T09:51:29;10.2;27.4
78708;SHT31;68037;51.978;5.650;2023-04-03T09:54:40;10.4;26.3
78708;SHT31;68037;51.978;5.650;2023-04-03T09:57:12;10.6;27.1
78708;SHT31;68037;51.978;5.650;2023-04-03T09:59:47;10.8;26.5
78708;SHT31;68037;51.978;5.650;2023-04-03T10:02:36;10.9;24.5
78708;SHT31;68037;51.978;5.650;2023-04-03T10:05:27;10.9;25.4
78708;SHT31;68037;51.978;5.650;2023-04-03T10:08:10;10.9;26.5
78708;SHT31;68037;51.978;5.650;2023-04-03T10:10:42;11.0;26.0
78708;SHT31;68037;51.978;5.650;2023-04-03T10:13:14;11.0;25.2
78708;SHT31;68037;51.978;5.650;2023-04-03T10:15:51;11.0;25.9
78708;SHT31;68037;51.978;5.650;2023-04-03T10:18:31;11.0;26.9
78708;SHT31;68037;51.978;5.650;2023-04-03T10:21:05;11.1;27.1
78708;SHT31;68037;51.978;5.650;2023-04-03T10:23:43;11.1;27.0
78708;SHT31;68037;51.978;5.650;2023-04-03T10:26:24;11.1;26.2
78708;SHT31;68037;51.978;5.650;2023-04-03T10:29:05;11.2;27.0
78708;SHT31;68037;51.978;5.650;2023-04-03T10:31:44;11.2;26.8
78708;SHT31;68037;51.978;5.650;2023-04-03T10:34:23;11.3;27.8
78708;SHT31;68037;51.978;5.650;2023-04-03T10:37:04;11.4;26.4
78708;SHT31;68037;51.978;5.650;2023-04-03T10:39:45;11.4;26.5
78708;SHT31;68037;51.978;5.650;2023-04-03T10:42:28;11.5;27.1
78708;SHT31;68037;51.978;5.650;2023-04-03T10:45:25;11.5;27.5
78708;SHT31;68037;51.978;5.650;2023-04-03T10:48:07;11.6;27.6
78708;SHT31;68037;51.978;5.650;2023-04-03T10:50:48;11.7;27.8
78708;SHT31;68037;51.978;5.650;2023-04-03T10:53:26;11.7;27.6
78708;SHT31;68037;51.978;5.650;2023-04-03T10:56:06;11.7;28.2
78708;SHT31;68037;51.978;5.650;2023-04-03T10:58:41;11.7;28.4
78708;SHT31;68037;51.978;5.650;2023-04-03T11:01:16;11.8;29.0
78708;SHT31;68037;51.978;5.650;2023-04-03T11:03:53;11.8;27.3
78708;SHT31;68037;51.978;5.650;2023-04-03T11:06:33;11.8;27.9
78708;SHT31;68037;51.978;5.650;2023-04-03T11:09:15;11.8;28.3
78708;SHT31;68037;51.978;5.650;2023-04-03T11:11:49;11.8;28.0
78708;SHT31;68037;51.978;5.650;2023-04-03T11:14:26;11.8;28.6
78708;SHT31;68037;51.978;5.650;2023-04-03T11:17:26;11.9;28.8
78708;SHT31;68037;51.978;5.650;2023-04-03T11:20:03;11.9;28.7
78708;SHT31;68037;51.978;5.650;2023-04-03T11:22:40;11.9;28.5
78708;SHT31;68037;51.978;5.650;2023-04-03T11:25:20;11.9;29.8
78708;SHT31;68037;51.978;5.650;2023-04-03T11:27:55;12.0;28.5
78708;SHT31;68037;51.978;5.650;2023-04-03T11:30:31;12.1;28.7
78708;SHT31;68037;51.978;5.650;2023-04-03T11:33:30;12.2;29.2
78708;SHT31;68037;51.978;5.650;2023-04-03T11:36:07;12.3;27.8
78708;SHT31;68037;51.978;5.650;2023-04-03T11:38:44;12.4;28.0
78708;SHT31;68037;51.978;5.650;2023-04-03T11:41:15;12.6;28.0
78708;SHT31;68037;51.978;5.650;2023-04-03T11:43:57;12.7;27.1
78708;SHT31;68037;51.978;5.650;2023-04-03T11:46:53;12.8;27.4
78708;SHT31;68037;51.978;5.650;2023-04-03T11:50:43;12.9;28.4
78708;SHT31;68037;51.978;5.650;2023-04-03T11:53:30;13.1;27.4
78708;SHT31;68037;51.978;5.650;2023-04-03T11:56:04;13.2;26.1
78708;SHT31;68037;51.978;5.650;2023-04-03T11:58:35;13.3;26.5
78708;SHT31;68037;51.978;5.650;2023-04-03T12:01:44;13.4;25.7
78708;SHT31;68037;51.978;5.650;2023-04-03T12:04:17;13.5;26.1
78708;SHT31;68037;51.978;5.650;2023-04-03T12:07:32;13.6;25.8
78708;SHT31;68037;51.978;5.650;2023-04-03T12:10:17;13.6;24.8
78708;SHT31;68037;51.978;5.650;2023-04-03T12:13:01;13.6;25.1
78708;SHT31;68037;51.978;5.650;2023-04-03T12:15:51;13.7;25.5
78708;SHT31;68037;51.978;5.650;2023-04-03T12:20:51;13.6;26.9
78708;SHT31;68037;51.978;5.650;2023-04-03T12:23:28;13.7;26.0
78708;SHT31;68037;51.978;5.650;2023-04-03T12:26:05;13.7;26.2
78708;SHT31;68037;51.978;5.650;2023-04-03T12:28:41;13.8;26.5
78708;SHT31;68037;51.978;5.650;2023-04-03T12:31:11;13.8;26.4
78708;SHT31;68037;51.978;5.650;2023-04-03T12:34:00;13.9;27.0
78708;SHT31;68037;51.978;5.650;2023-04-03T12:36:41;14.0;27.0
78708;SHT31;68037;51.978;5.650;2023-04-03T12:39:26;14.1;26.7
78708;SHT31;68037;51.978;5.650;2023-04-03T12:42:09;14.2;27.0
78708;SHT31;68037;51.978;5.650;2023-04-03T12:44:55;14.3;26.2
78708;SHT31;68037;51.978;5.650;2023-04-03T12:47:34;14.3;25.9
78708;SHT31;68037;51.978;5.650;2023-04-03T12:50:21;14.3;25.6
78708;SHT31;68037;51.978;5.650;2023-04-03T12:52:58;14.3;25.6
78708;SHT31;68037;51.978;5.650;2023-04-03T12:55:28;14.3;26.2
78708;SHT31;68037;51.978;5.650;2023-04-03T12:58:15;14.2;26.4
78708;SHT31;68037;51.978;5.650;2023-04-03T13:00:45;14.2;26.6
78708;SHT31;68037;51.978;5.650;2023-04-03T13:03:25;14.1;26.9
78708;SHT31;68037;51.978;5.650;2023-04-03T13:05:59;14.1;26.6
78708;SHT31;68037;51.978;5.650;2023-04-03T13:08:31;14.1;27.6
78708;SHT31;68037;51.978;5.650;2023-04-03T13:11:04;14.2;26.6
78708;SHT31;68037;51.978;5.650;2023-04-03T13:13:35;14.2;26.5
78708;SHT31;68037;51.978;5.650;2023-04-03T13:16:11;14.3;26.0
78708;SHT31;68037;51.978;5.650;2023-04-03T13:18:42;14.3;25.2
78708;SHT31;68037;51.978;5.650;2023-04-03T13:21:17;14.2;25.4
78708;SHT31;68037;51.978;5.650;2023-04-03T13:23:51;14.2;25.9
78708;SHT31;68037;51.978;5.650;2023-04-03T13:26:23;14.1;25.7
78708;SHT31;68037;51.978;5.650;2023-04-03T13:28:55;14.0;27.1
78708;SHT31;68037;51.978;5.650;2023-04-03T13:31:30;14.0;27.3
78708;SHT31;68037;51.978;5.650;2023-04-03T13:34:06;14.0;28.3
78708;SHT31;68037;51.978;5.650;2023-04-03T13:36:38;14.0;27.0
78708;SHT31;68037;51.978;5.650;2023-04-03T13:39:22;14.0;26.6
78708;SHT31;68037;51.978;5.650;2023-04-03T13:41:53;13.9;27.2
78708;SHT31;68037;51.978;5.650;2023-04-03T13:44:33;13.9;27.0
78708;SHT31;68037;51.978;5.650;2023-04-03T13:47:17;13.9;28.0
78708;SHT31;68037;51.978;5.650;2023-04-03T13:50:03;13.8;27.5
78708;SHT31;68037;51.978;5.650;2023-04-03T13:52:39;13.8;27.7
78708;SHT31;68037;51.978;5.650;2023-04-03T13:55:17;13.8;27.2
78708;SHT31;68037;51.978;5.650;2023-04-03T13:57:54;13.8;27.4
78708;SHT31;68037;51.978;5.650;2023-04-03T14:00:48;13.8;27.8
78708;SHT31;68037;51.978;5.650;2023-04-03T14:03:21;13.8;28.0
78708;SHT31;68037;51.978;5.650;2023-04-03T14:05:53;13.8;27.5
78708;SHT31;68037;51.978;5.650;2023-04-03T14:08:23;13.8;26.6
78708;SHT31;68037;51.978;5.650;2023-04-03T14:10:54;13.8;27.2
78708;SHT31;68037;51.978;5.650;2023-04-03T14:13:29;13.8;26.9
78708;SHT31;68037;51.978;5.650;2023-04-03T14:15:59;13.8;27.6
78708;SHT31;68037;51.978;5.650;2023-04-03T14:18:31;13.8;27.6
78708;SHT31;68037;51.978;5.650;2023-04-03T14:21:01;13.9;28.3
78708;SHT31;68037;51.978;5.650;2023-04-03T14:23:31;13.9;28.1
78708;SHT31;68037;51.978;5.650;2023-04-03T14:26:00;14.0;28.0
78708;SHT31;68037;51.978;5.650;2023-04-03T14:28:35;14.1;27.6
78708;SHT31;68037;51.978;5.650;2023-04-03T14:31:08;14.1;27.8
78708;SHT31;68037;51.978;5.650;2023-04-03T14:33:39;14.2;27.6
78708;SHT31;68037;51.978;5.650;2023-04-03T14:36:14;14.2;27.7
78708;SHT31;68037;51.978;5.650;2023-04-03T14:38:46;14.1;28.4
78708;SHT31;68037;51.978;5.650;2023-04-03T14:41:19;14.1;28.3
78708;SHT31;68037;51.978;5.650;2023-04-03T14:43:50;14.1;28.3
78708;SHT31;68037;51.978;5.650;2023-04-03T14:46:24;14.1;28.7
78708;SHT31;68037;51.978;5.650;2023-04-03T14:48:54;14.1;28.1
78708;SHT31;68037;51.978;5.650;2023-04-03T14:51:27;14.1;28.7
78708;SHT31;68037;51.978;5.650;2023-04-03T14:53:57;14.1;28.5
78708;SHT31;68037;51.978;5.650;2023-04-03T14:56:29;14.1;28.4
78708;SHT31;68037;51.978;5.650;2023-04-03T14:59:00;14.0;29.4
78708;SHT31;68037;51.978;5.650;2023-04-03T15:01:30;14.0;28.3
78708;SHT31;68037;51.978;5.650;2023-04-03T15:03:59;14.0;28.4
78708;SHT31;68037;51.978;5.650;2023-04-03T15:06:29;13.9;28.5
78708;SHT31;68037;51.978;5.650;2023-04-03T15:09:01;13.9;28.8
78708;SHT31;68037;51.978;5.650;2023-04-03T15:11:30;13.9;29.1
78708;SHT31;68037;51.978;5.650;2023-04-03T15:14:01;13.9;29.6
78708;SHT31;68037;51.978;5.650;2023-04-03T15:16:30;13.9;29.0
78708;SHT31;68037;51.978;5.650;2023-04-03T15:19:00;13.8;30.5
78708;SHT31;68037;51.978;5.650;2023-04-03T15:21:30;13.8;30.1
78708;SHT31;68037;51.978;5.650;2023-04-03T15:23:59;13.8;30.6
78708;SHT31;68037;51.978;5.650;2023-04-03T15:26:29;13.8;30.4
78708;SHT31;68037;51.978;5.650;2023-04-03T15:29:02;13.8;30.8
78708;SHT31;68037;51.978;5.650;2023-04-03T15:31:32;13.9;30.9
78708;SHT31;68037;51.978;5.650;2023-04-03T15:34:02;13.9;30.7
78708;SHT31;68037;51.978;5.650;2023-04-03T15:36:32;13.9;30.2
78708;SHT31;68037;51.978;5.650;2023-04-03T15:39:03;13.9;30.2
78708;SHT31;68037;51.978;5.650;2023-04-03T15:41:32;13.9;29.9
78708;SHT31;68037;51.978;5.650;2023-04-03T15:44:04;13.9;30.0
78708;SHT31;68037;51.978;5.650;2023-04-03T15:46:34;13.9;29.9
78708;SHT31;68037;51.978;5.650;2023-04-03T15:49:03;13.9;30.0
78708;SHT31;68037;51.978;5.650;2023-04-03T15:51:33;13.9;29.4
78708;SHT31;68037;51.978;5.650;2023-04-03T15:54:03;13.9;29.1
78708;SHT31;68037;51.978;5.650;2023-04-03T15:56:32;13.9;30.0
78708;SHT31;68037;51.978;5.650;2023-04-03T15:59:02;14.0;29.9
78708;SHT31;68037;51.978;5.650;2023-04-03T16:01:33;14.1;30.0
78708;SHT31;68037;51.978;5.650;2023-04-03T16:04:05;14.2;30.3
78708;SHT31;68037;51.978;5.650;2023-04-03T16:06:37;14.4;29.5
78708;SHT31;68037;51.978;5.650;2023-04-03T16:09:08;14.7;29.4
78708;SHT31;68037;51.978;5.650;2023-04-03T16:11:40;15.1;28.3
78708;SHT31;68037;51.978;5.650;2023-04-03T16:14:10;15.5;28.3
78708;SHT31;68037;51.978;5.650;2023-04-03T16:16:41;15.8;27.6
78708;SHT31;68037;51.978;5.650;2023-04-03T16:19:11;16.2;27.6
78708;SHT31;68037;51.978;5.650;2023-04-03T16:21:42;16.6;26.6
78708;SHT31;68037;51.978;5.650;2023-04-03T16:24:14;16.8;27.0
78708;SHT31;68037;51.978;5.650;2023-04-03T16:26:45;17.1;25.8
78708;SHT31;68037;51.978;5.650;2023-04-03T16:29:15;17.2;26.3
78708;SHT31;68037;51.978;5.650;2023-04-03T16:31:45;17.4;25.8
78708;SHT31;68037;51.978;5.650;2023-04-03T16:34:15;17.6;25.9
78708;SHT31;68037;51.978;5.650;2023-04-03T16:36:45;17.7;25.7
78708;SHT31;68037;51.978;5.650;2023-04-03T16:39:14;17.9;25.0
78708;SHT31;68037;51.978;5.650;2023-04-03T16:41:44;18.0;25.0
78708;SHT31;68037;51.978;5.650;2023-04-03T16:44:15;18.1;25.1
78708;SHT31;68037;51.978;5.650;2023-04-03T16:46:44;18.3;24.3
78708;SHT31;68037;51.978;5.650;2023-04-03T16:49:14;18.2;24.1
78708;SHT31;68037;51.978;5.650;2023-04-03T16:51:43;18.0;24.1
78708;SHT31;68037;51.978;5.650;2023-04-03T16:54:15;17.6;25.1
78708;SHT31;68037;51.978;5.650;2023-04-03T16:56:45;17.2;25.6